createdAt,value
2022-11-03T00:01:52.138Z,98748.91
2022-11-03T00:04:21.838Z,98755.94
2022-11-03T00:06:51.850Z,98751.63
2022-11-03T00:09:21.184Z,98744.69
2022-11-03T00:11:51.864Z,98755.44
2022-11-03T00:14:20.868Z,98760.69
2022-11-03T00:16:50.240Z,98753.66
2022-11-03T00:19:18.367Z,98762.34
2022-11-03T00:21:46.950Z,98765.63
2022-11-03T00:24:15.260Z,98759.34
2022-11-03T00:26:43.368Z,98775.78
2022-11-03T00:29:13.819Z,98773.94
2022-11-03T00:31:43.449Z,98773.16
2022-11-03T00:34:13.509Z,98776.97
2022-11-03T00:36:43.419Z,98780.97
2022-11-03T00:39:12.821Z,98777.84
2022-11-03T00:41:41.151Z,98780.22
2022-11-03T00:44:10.646Z,98776.41
2022-11-03T00:46:39.780Z,98783.03
2022-11-03T00:49:08.051Z,98774.03
2022-11-03T00:51:37.477Z,98770.34
2022-11-03T00:54:07.463Z,98747.19
2022-11-03T00:56:37.865Z,98753.56
2022-11-03T00:59:07.489Z,98749.31
2022-11-03T01:01:42.110Z,98752.84
2022-11-03T01:04:31.218Z,98745.06
2022-11-03T01:07:01.848Z,98730.16
2022-11-03T01:09:31.759Z,98732.78
2022-11-03T01:12:02.309Z,98716.03
2022-11-03T01:14:35.664Z,98718.66
2022-11-03T01:17:05.709Z,98716.88
2022-11-03T01:19:33.818Z,98729.75
2022-11-03T01:22:06.466Z,98723.41
2022-11-03T01:24:38.081Z,98717.97
2022-11-03T01:27:06.179Z,98716.28
2022-11-03T01:29:34.299Z,98716.38
2022-11-03T01:32:02.450Z,98721.63
2022-11-03T01:34:31.078Z,98726.03
2022-11-03T01:36:59.192Z,98724.16
2022-11-03T01:39:28.779Z,98724.16
2022-11-03T01:41:56.999Z,98724.25
2022-11-03T01:44:28.698Z,98709.59
2022-11-03T01:47:02.610Z,98710.59
2022-11-03T01:49:37.127Z,98709.84
2022-11-03T01:52:09.621Z,98701.38
2022-11-03T01:54:41.410Z,98698.94
2022-11-03T01:57:14.790Z,98695.38
2022-11-03T01:59:45.040Z,98693.69
2022-11-03T02:02:14.729Z,98691.28
2022-11-03T02:04:43.828Z,98687.03
2022-11-03T02:07:20.410Z,98692.38
2022-11-03T02:09:49.826Z,98687.22
2022-11-03T02:12:21.089Z,98689.91
2022-11-03T02:14:54.447Z,98684.81
2022-11-03T02:17:24.780Z,98675.34
2022-11-03T02:19:58.928Z,98669.34
2022-11-03T02:22:42.417Z,98655.38
2022-11-03T02:25:19.687Z,98658.75
2022-11-03T02:27:49.277Z,98645.78
2022-11-03T02:30:17.419Z,98639.78
2022-11-03T02:32:56.428Z,98637.31
2022-11-03T02:35:31.312Z,98631.47
2022-11-03T02:38:03.213Z,98632.47
2022-11-03T02:40:35.489Z,98624.53
2022-11-03T02:43:07.273Z,98635.19
2022-11-03T02:45:36.400Z,98642.97
2022-11-03T02:48:06.129Z,98640.41
2022-11-03T02:50:35.857Z,98650.91
2022-11-03T02:53:04.207Z,98632.63
2022-11-03T02:55:38.088Z,98614.28
2022-11-03T02:58:15.991Z,98605.66
2022-11-03T03:00:50.596Z,98587.34
2022-11-03T03:03:23.568Z,98552.38
2022-11-03T03:05:56.461Z,98540.19
2022-11-03T03:08:27.159Z,98534.19
2022-11-03T03:10:56.500Z,98530.66
2022-11-03T03:13:26.170Z,98542.06
2022-11-03T03:16:05.533Z,98534.19
2022-11-03T03:18:46.549Z,98544.50
2022-11-03T03:21:19.309Z,98535.03
2022-11-03T03:23:52.918Z,98541.97
2022-11-03T03:26:27.679Z,98538.59
2022-11-03T03:29:00.939Z,98542.06
2022-11-03T03:31:35.207Z,98543.84
2022-11-03T03:34:23.641Z,98555.84
2022-11-03T03:36:56.078Z,98543.53
2022-11-03T03:39:27.991Z,98540.81
2022-11-03T03:41:59.740Z,98544.97
2022-11-03T03:44:29.839Z,98536.06
2022-11-03T03:47:02.419Z,98541.22
2022-11-03T03:49:30.638Z,98542.91
2022-11-03T03:51:59.167Z,98542.75
2022-11-03T03:54:27.377Z,98534.78
2022-11-03T03:57:01.868Z,98533.84
2022-11-03T03:59:32.011Z,98538.94
2022-11-03T04:02:00.707Z,98538.00
2022-11-03T04:04:28.879Z,98544.09
2022-11-03T04:07:10.908Z,98541.31
2022-11-03T04:09:39.070Z,98540.53
2022-11-03T04:12:26.250Z,98537.00
2022-11-03T04:15:13.379Z,98525.66
2022-11-03T04:18:02.480Z,98523.03
2022-11-03T04:20:48.784Z,98518.63
2022-11-03T04:23:17.030Z,98520.31
2022-11-03T04:25:49.195Z,98519.41
2022-11-03T04:28:17.448Z,98516.69
2022-11-03T04:30:47.228Z,98515.84
2022-11-03T04:33:17.258Z,98508.03
2022-11-03T04:35:46.006Z,98508.91
2022-11-03T04:38:23.898Z,98508.03
2022-11-03T04:40:55.647Z,98501.94
2022-11-03T04:43:30.657Z,98505.50
2022-11-03T04:46:00.192Z,98502.03
2022-11-03T04:48:30.032Z,98498.56
2022-11-03T04:51:01.928Z,98495.94
2022-11-03T04:53:33.650Z,98493.22
2022-11-03T04:56:07.165Z,98492.47
2022-11-03T04:58:37.127Z,98496.88
2022-11-03T05:01:13.751Z,98485.63
2022-11-03T05:03:43.549Z,98492.66
2022-11-03T05:06:15.320Z,98484.84
2022-11-03T05:08:45.281Z,98477.25
2022-11-03T05:11:20.964Z,98479.03
2022-11-03T05:13:49.978Z,98476.56
2022-11-03T05:16:19.889Z,98471.50
2022-11-03T05:18:51.089Z,98474.19
2022-11-03T05:21:22.929Z,98474.47
2022-11-03T05:23:54.198Z,98467.78
2022-11-03T05:26:27.769Z,98465.41
2022-11-03T05:29:00.619Z,98462.13
2022-11-03T05:31:32.288Z,98464.75
2022-11-03T05:34:02.844Z,98461.28
2022-11-03T05:36:32.548Z,98454.41
2022-11-03T05:39:13.788Z,98449.25
2022-11-03T05:41:41.958Z,98456.09
2022-11-03T05:44:29.981Z,98447.47
2022-11-03T05:47:03.197Z,98435.44
2022-11-03T05:49:33.978Z,98434.59
2022-11-03T05:52:02.270Z,98420.72
2022-11-03T05:54:35.028Z,98422.50
2022-11-03T05:57:03.147Z,98417.34
2022-11-03T05:59:31.299Z,98421.75
2022-11-03T06:02:02.194Z,98420.72
2022-11-03T06:04:33.951Z,98422.41
2022-11-03T06:07:05.010Z,98423.44
2022-11-03T06:09:35.221Z,98416.66
2022-11-03T06:12:06.730Z,98414.97
2022-11-03T06:14:37.517Z,98422.94
2022-11-03T06:17:11.469Z,98421.25
2022-11-03T06:19:41.409Z,98423.88
2022-11-03T06:22:16.768Z,98427.50
2022-11-03T06:24:45.633Z,98432.81
2022-11-03T06:27:16.181Z,98419.72
2022-11-03T06:29:49.939Z,98421.59
2022-11-03T06:32:19.119Z,98417.28
2022-11-03T06:34:50.365Z,98423.44
2022-11-03T06:37:24.031Z,98419.22
2022-11-03T06:39:52.897Z,98412.28
2022-11-03T06:42:26.678Z,98414.16
2022-11-03T06:44:57.478Z,98408.97
2022-11-03T06:47:28.788Z,98408.06
2022-11-03T06:49:59.551Z,98405.44
2022-11-03T06:52:30.864Z,98398.56
2022-11-03T06:55:21.929Z,98401.28
2022-11-03T06:57:54.262Z,98401.28
2022-11-03T07:00:41.542Z,98404.06
2022-11-03T07:03:17.540Z,98393.75
2022-11-03T07:05:46.298Z,98399.09
2022-11-03T07:08:22.912Z,98398.25
2022-11-03T07:10:58.388Z,98393.00
2022-11-03T07:13:28.500Z,98400.09
2022-11-03T07:15:56.704Z,98396.56
2022-11-03T07:18:30.628Z,98391.13
2022-11-03T07:21:00.021Z,98390.94
2022-11-03T07:23:31.677Z,98392.66
2022-11-03T07:26:01.749Z,98393.41
2022-11-03T07:28:34.699Z,98388.94
2022-11-03T07:31:16.244Z,98394.16
2022-11-03T07:33:47.276Z,98398.47
2022-11-03T07:36:19.560Z,98394.16
2022-11-03T07:38:50.699Z,98393.56
2022-11-03T07:41:22.113Z,98406.69
2022-11-03T07:43:55.821Z,98410.09
2022-11-03T07:46:24.687Z,98425.63
2022-11-03T07:48:56.846Z,98407.47
2022-11-03T07:51:27.389Z,98411.03
2022-11-03T07:53:58.180Z,98405.78
2022-11-03T07:56:28.391Z,98407.28
2022-11-03T07:59:01.789Z,98406.19
2022-11-03T08:01:32.787Z,98387.75
2022-11-03T08:04:05.613Z,98395.19
2022-11-03T08:06:34.243Z,98395.69
2022-11-03T08:09:02.329Z,98378.78
2022-11-03T08:11:30.453Z,98382.84
2022-11-03T08:13:58.646Z,98376.22
2022-11-03T08:16:26.845Z,98372.88
2022-11-03T08:18:55.216Z,98367.72
2022-11-03T08:21:24.639Z,98370.25
2022-11-03T08:23:53.075Z,98378.94
2022-11-03T08:26:21.326Z,98378.84
2022-11-03T08:28:49.556Z,98377.16
2022-11-03T08:31:17.939Z,98365.94
2022-11-03T08:33:46.006Z,98377.50
2022-11-03T08:36:14.297Z,98374.13
2022-11-03T08:38:43.728Z,98377.44
2022-11-03T08:41:11.850Z,98377.94
2022-11-03T08:43:40.371Z,98368.03
2022-11-03T08:46:18.189Z,98387.06
2022-11-03T08:48:47.180Z,98374.81
2022-11-03T08:51:15.933Z,98379.94
2022-11-03T08:53:46.388Z,98386.72
2022-11-03T08:56:16.179Z,98384.00
2022-11-03T08:58:47.280Z,98378.03
2022-11-03T09:01:15.794Z,98374.72
2022-11-03T09:03:44.004Z,98374.81
2022-11-03T09:06:12.434Z,98366.94
2022-11-03T09:11:30.040Z,98372.00
2022-11-03T09:13:58.339Z,98375.41
2022-11-03T09:16:26.705Z,98371.84
2022-11-03T09:18:54.870Z,98378.97
2022-11-03T09:21:23.008Z,98380.78
2022-11-03T09:23:51.186Z,98384.53
2022-11-03T09:26:19.377Z,98396.03
2022-11-03T09:28:49.676Z,98383.00
2022-11-03T09:31:17.899Z,98385.72
2022-11-03T09:33:46.035Z,98385.63
2022-11-03T09:36:14.183Z,98383.84
2022-11-03T09:38:42.271Z,98379.44
2022-11-03T09:41:26.537Z,98381.13
2022-11-03T09:44:00.515Z,98373.13
2022-11-03T09:46:30.723Z,98382.47
2022-11-03T09:49:00.367Z,98378.13
2022-11-03T09:51:29.498Z,98365.91
2022-11-03T09:54:00.104Z,98368.38
2022-11-03T09:56:28.500Z,98368.13
2022-11-03T09:58:57.898Z,98366.06
2022-11-03T10:01:26.201Z,98363.84
2022-11-03T10:03:59.972Z,98358.59
2022-11-03T10:06:27.816Z,98358.59
2022-11-03T10:08:55.999Z,98342.84
2022-11-03T10:11:24.266Z,98348.97
2022-11-03T10:13:56.747Z,98335.91
2022-11-03T10:16:27.583Z,98336.59
2022-11-03T10:18:55.957Z,98334.22
2022-11-03T10:21:28.715Z,98329.19
2022-11-03T10:23:56.899Z,98327.31
2022-11-03T10:26:25.229Z,98332.84
2022-11-03T10:29:01.123Z,98328.88
2022-11-03T10:31:38.680Z,98322.47
2022-11-03T10:34:08.037Z,98328.56
2022-11-03T10:36:36.328Z,98332.63
2022-11-03T10:39:25.637Z,98330.78
2022-11-03T10:42:00.970Z,98326.06
2022-11-03T10:44:30.438Z,98326.63
2022-11-03T10:47:01.342Z,98318.00
2022-11-03T10:49:31.397Z,98323.06
2022-11-03T10:52:14.839Z,98328.31
2022-11-03T10:54:43.076Z,98320.81
2022-11-03T10:57:11.317Z,98322.41
2022-11-03T10:59:40.616Z,98313.25
2022-11-03T11:02:18.577Z,98321.16
2022-11-03T11:04:48.918Z,98304.56
2022-11-03T11:07:23.315Z,98309.97
2022-11-03T11:09:51.871Z,98308.88
2022-11-03T11:12:23.417Z,98311.97
2022-11-03T11:14:54.399Z,98315.34
2022-11-03T11:17:44.612Z,98304.47
2022-11-03T11:20:30.509Z,98290.31
2022-11-03T11:23:37.799Z,98283.06
2022-11-03T11:26:14.875Z,98273.41
2022-11-03T11:28:44.486Z,98270.22
2022-11-03T11:31:32.163Z,98261.44
2022-11-03T11:34:34.635Z,98267.00
2022-11-03T11:37:35.993Z,98272.31
2022-11-03T11:40:12.589Z,98268.25
2022-11-03T11:43:14.493Z,98284.53
2022-11-03T11:46:19.860Z,98280.31
2022-11-03T11:48:51.597Z,98289.94
2022-11-03T11:51:19.759Z,98279.97
2022-11-03T11:54:10.022Z,98276.16
2022-11-03T11:56:43.851Z,98292.22
2022-11-03T11:59:24.362Z,98282.41
2022-11-03T12:01:56.070Z,98280.00
2022-11-03T12:04:27.729Z,98281.34
2022-11-03T12:06:57.602Z,98282.41
2022-11-03T12:09:29.269Z,98283.06
2022-11-03T12:12:00.696Z,98277.22
2022-11-03T12:14:35.649Z,98280.06
2022-11-03T12:17:37.048Z,98272.84
2022-11-03T12:20:38.069Z,98272.00
2022-11-03T12:23:06.199Z,98272.59
2022-11-03T12:25:37.539Z,98272.13
2022-11-03T12:28:06.533Z,98273.28
2022-11-03T12:30:39.691Z,98269.53
2022-11-03T12:33:09.115Z,98267.34
2022-11-03T12:35:38.199Z,98259.88
2022-11-03T12:38:06.418Z,98260.75
2022-11-03T12:40:35.806Z,98263.28
2022-11-03T12:43:04.265Z,98274.53
2022-11-03T12:45:32.578Z,98272.38
2022-11-03T12:48:00.696Z,98271.63
2022-11-03T12:50:28.741Z,98264.97
2022-11-03T12:52:56.909Z,98264.91
2022-11-03T12:55:25.108Z,98260.63
2022-11-03T12:57:54.629Z,98260.47
2022-11-03T13:00:23.882Z,98255.88
2022-11-03T13:02:52.164Z,98254.88
2022-11-03T13:05:20.338Z,98262.72
2022-11-03T13:07:48.489Z,98260.56
2022-11-03T13:10:16.756Z,98259.16
2022-11-03T13:12:45.415Z,98256.94
2022-11-03T13:15:15.831Z,98249.97
2022-11-03T13:18:13.005Z,98255.53
2022-11-03T13:20:32.599Z,98254.09
2022-11-03T13:23:00.700Z,98251.84
2022-11-03T13:25:29.457Z,98248.28
2022-11-03T13:27:58.188Z,98239.91
2022-11-03T13:30:28.578Z,98242.22
2022-11-03T13:32:56.997Z,98249.09
2022-11-03T13:35:25.149Z,98247.91
2022-11-03T13:37:53.191Z,98236.09
2022-11-03T13:43:09.952Z,98227.47
2022-11-03T13:45:39.716Z,98224.31
2022-11-03T13:50:57.070Z,98218.91
2022-11-03T13:56:20.873Z,98218.75
2022-11-03T14:01:41.054Z,98207.94
2022-11-03T14:06:58.449Z,98213.22
2022-11-03T14:09:26.743Z,98196.03
2022-11-03T14:12:12.758Z,98202.25
2022-11-03T14:14:40.824Z,98195.47
2022-11-03T14:17:10.453Z,98202.25
2022-11-03T14:19:44.001Z,98204.88
2022-11-03T14:22:15.525Z,98192.94
2022-11-03T14:24:43.628Z,98188.81
2022-11-03T14:27:12.871Z,98185.69
2022-11-03T14:29:40.974Z,98189.94
2022-11-03T14:32:10.487Z,98186.41
2022-11-03T14:34:39.469Z,98197.19
2022-11-03T14:37:09.154Z,98190.66
2022-11-03T14:39:37.690Z,98189.81
2022-11-03T14:42:05.768Z,98194.56
2022-11-03T14:44:35.208Z,98198.31
2022-11-03T14:47:06.449Z,98203.03
2022-11-03T14:49:36.550Z,98209.53
2022-11-03T14:52:07.496Z,98200.44
2022-11-03T14:54:36.596Z,98202.25
2022-11-03T14:57:05.168Z,98197.44
2022-11-03T14:59:33.625Z,98206.81
2022-11-03T15:02:02.246Z,98207.56
2022-11-03T15:04:30.619Z,98202.19
2022-11-03T15:07:00.119Z,98205.75
2022-11-03T15:09:28.249Z,98200.41
2022-11-03T15:11:56.340Z,98200.28
2022-11-03T15:14:24.629Z,98188.09
2022-11-03T15:16:52.767Z,98192.91
2022-11-03T15:19:20.947Z,98181.59
2022-11-03T15:21:49.095Z,98182.38
2022-11-03T15:27:06.831Z,98186.00
2022-11-03T15:29:34.875Z,98195.22
2022-11-03T15:32:02.935Z,98194.09
2022-11-03T15:34:31.081Z,98187.44
2022-11-03T15:36:59.299Z,98190.00
2022-11-03T15:39:29.812Z,98186.44
2022-11-03T15:42:00.218Z,98188.28
2022-11-03T15:44:28.549Z,98178.72
2022-11-03T15:46:56.699Z,98190.63
2022-11-03T15:49:24.776Z,98182.44
2022-11-03T15:51:52.936Z,98185.78
2022-11-03T15:54:21.170Z,98183.72
2022-11-03T15:56:50.571Z,98179.09
2022-11-03T15:59:19.085Z,98176.16
2022-11-03T16:01:47.402Z,98172.97
2022-11-03T16:04:16.852Z,98170.88
2022-11-03T16:09:33.527Z,98170.00
2022-11-03T16:12:03.456Z,98167.00
2022-11-03T16:14:31.678Z,98168.16
2022-11-03T16:16:59.768Z,98171.06
2022-11-03T16:19:27.899Z,98172.25
2022-11-03T16:21:55.988Z,98170.63
2022-11-03T16:24:29.615Z,98176.19
2022-11-03T16:27:05.130Z,98181.34
2022-11-03T16:29:33.308Z,98189.09
2022-11-03T16:32:01.437Z,98189.75
2022-11-03T16:34:29.499Z,98189.50
2022-11-03T16:36:58.011Z,98188.91
2022-11-03T16:39:26.079Z,98191.41
2022-11-03T16:41:55.228Z,98192.13
2022-11-03T16:44:25.620Z,98192.97
2022-11-03T16:46:54.628Z,98190.59
2022-11-03T16:49:22.729Z,98185.53
2022-11-03T16:51:50.926Z,98181.59
2022-11-03T16:54:19.121Z,98168.94
2022-11-03T16:56:51.941Z,98178.19
2022-11-03T16:59:26.347Z,98178.81
2022-11-03T17:01:55.576Z,98180.16
2022-11-03T17:04:23.758Z,98164.78
2022-11-03T17:06:51.909Z,98168.84
2022-11-03T17:09:20.290Z,98173.75
2022-11-03T17:11:48.449Z,98167.31
2022-11-03T17:14:16.563Z,98165.94
2022-11-03T17:16:47.176Z,98167.91
2022-11-03T17:19:15.379Z,98167.16
2022-11-03T17:21:43.432Z,98173.66
2022-11-03T17:24:13.408Z,98173.34
2022-11-03T17:26:51.349Z,98175.03
2022-11-03T17:29:22.489Z,98170.19
2022-11-03T17:31:52.258Z,98182.22
2022-11-03T17:34:23.748Z,98187.34
2022-11-03T17:36:52.450Z,98184.63
2022-11-03T17:41:55.408Z,98192.75
2022-11-03T17:44:23.466Z,98192.50
2022-11-03T17:46:52.967Z,98192.50
2022-11-03T17:49:21.058Z,98191.38
2022-11-03T17:51:49.265Z,98191.53
2022-11-03T17:54:18.527Z,98182.84
2022-11-03T17:56:46.816Z,98194.25
2022-11-03T17:59:17.348Z,98185.50
2022-11-03T18:01:46.097Z,98182.78
2022-11-03T18:04:16.447Z,98186.84
2022-11-03T18:06:45.501Z,98193.47
2022-11-03T18:09:13.677Z,98197.56
2022-11-03T18:12:01.670Z,98193.72
2022-11-03T18:14:31.296Z,98193.13
2022-11-03T18:16:59.756Z,98199.75
2022-11-03T18:19:29.366Z,98202.81
2022-11-03T18:21:59.006Z,98198.97
2022-11-03T18:24:31.929Z,98196.81
2022-11-03T18:27:25.104Z,98190.44
2022-11-03T18:29:53.631Z,98193.56
2022-11-03T18:32:21.759Z,98196.03
2022-11-03T18:34:51.256Z,98203.72
2022-11-03T18:37:19.466Z,98200.88
2022-11-03T18:39:47.639Z,98210.25
2022-11-03T18:42:16.639Z,98206.63
2022-11-03T18:44:44.951Z,98207.09
2022-11-03T18:47:13.051Z,98217.47
2022-11-03T18:49:41.339Z,98207.69
2022-11-03T18:52:15.612Z,98201.13
2022-11-03T18:54:47.026Z,98205.78
2022-11-03T18:57:15.805Z,98204.56
2022-11-03T18:59:45.931Z,98193.59
2022-11-03T19:02:18.224Z,98194.19
2022-11-03T19:04:46.919Z,98181.84
2022-11-03T19:07:22.047Z,98189.63
2022-11-03T19:09:50.474Z,98187.25
2022-11-03T19:12:19.270Z,98173.59
2022-11-03T19:14:49.549Z,98176.19
2022-11-03T19:17:23.528Z,98176.44
2022-11-03T19:19:53.055Z,98171.22
2022-11-03T19:22:24.438Z,98171.31
2022-11-03T19:24:52.925Z,98171.91
2022-11-03T19:27:25.289Z,98165.66
2022-11-03T19:29:53.952Z,98167.41
2022-11-03T19:32:25.668Z,98163.28
2022-11-03T19:34:58.029Z,98160.09
2022-11-03T19:37:32.547Z,98155.59
2022-11-03T19:40:06.047Z,98153.81
2022-11-03T19:42:36.785Z,98148.69
2022-11-03T19:45:07.717Z,98149.63
2022-11-03T19:47:47.919Z,98153.06
2022-11-03T19:50:24.894Z,98158.31
2022-11-03T19:52:56.094Z,98153.13
2022-11-03T19:55:31.096Z,98160.13
2022-11-03T19:58:03.204Z,98159.47
2022-11-03T20:00:31.783Z,98153.47
2022-11-03T20:02:59.811Z,98168.31
2022-11-03T20:05:27.964Z,98153.97
2022-11-03T20:08:00.505Z,98150.75
2022-11-03T20:10:31.729Z,98155.44
2022-11-03T20:13:04.186Z,98150.50
2022-11-03T20:15:32.348Z,98147.34
2022-11-03T20:18:00.402Z,98140.75
2022-11-03T20:20:35.272Z,98142.84
2022-11-03T20:23:06.309Z,98150.47
2022-11-03T20:25:37.064Z,98153.31
2022-11-03T20:28:15.895Z,98153.63
2022-11-03T20:30:44.110Z,98145.34
2022-11-03T20:33:15.649Z,98142.56
2022-11-03T20:35:45.377Z,98149.72
2022-11-03T20:38:18.989Z,98149.31
2022-11-03T20:40:49.143Z,98152.06
2022-11-03T20:43:25.817Z,98151.16
2022-11-03T20:45:54.784Z,98149.22
2022-11-03T20:48:23.496Z,98154.22
2022-11-03T20:50:52.652Z,98156.75
2022-11-03T20:53:24.796Z,98150.69
2022-11-03T20:55:53.483Z,98153.38
2022-11-03T20:58:21.817Z,98163.81
2022-11-03T21:00:50.499Z,98166.34
2022-11-03T21:03:37.717Z,98168.34
2022-11-03T21:06:10.468Z,98165.25
2022-11-03T21:08:40.428Z,98165.34
2022-11-03T21:11:34.747Z,98159.13
2022-11-03T21:14:03.266Z,98160.03
2022-11-03T21:16:49.017Z,98166.19
2022-11-03T21:19:36.015Z,98174.03
2022-11-03T21:22:30.953Z,98189.59
2022-11-03T21:25:01.993Z,98182.47
2022-11-03T21:27:30.138Z,98194.41
2022-11-03T21:29:59.694Z,98196.16
2022-11-03T21:32:28.048Z,98193.59
2022-11-03T21:34:56.288Z,98201.53
2022-11-03T21:37:24.325Z,98212.72
2022-11-03T21:39:52.437Z,98211.97
2022-11-03T21:42:39.706Z,98215.69
2022-11-03T21:45:08.826Z,98219.44
2022-11-03T21:47:36.895Z,98215.03
2022-11-03T21:50:04.410Z,98224.53
2022-11-03T21:52:33.237Z,98227.91
2022-11-03T21:55:02.770Z,98241.75
2022-11-03T21:57:32.402Z,98237.50
2022-11-03T22:00:00.847Z,98243.81
2022-11-03T22:02:30.460Z,98259.69
2022-11-03T22:04:59.126Z,98248.03
2022-11-03T22:07:27.350Z,98252.03
2022-11-03T22:09:55.530Z,98253.44
2022-11-03T22:12:24.289Z,98264.66
2022-11-03T22:15:11.509Z,98255.84
2022-11-03T22:17:39.696Z,98265.44
2022-11-03T22:20:25.888Z,98259.44
2022-11-03T22:23:11.578Z,98264.72
2022-11-03T22:25:57.178Z,98269.94
2022-11-03T22:28:25.279Z,98277.56
2022-11-03T22:31:11.849Z,98279.28
2022-11-03T22:33:59.977Z,98280.03
2022-11-03T22:36:28.525Z,98280.66
2022-11-03T22:39:14.149Z,98280.66
2022-11-03T22:42:05.926Z,98293.88
2022-11-03T22:44:52.128Z,98301.63
2022-11-03T22:47:21.581Z,98301.84
2022-11-03T22:49:49.653Z,98308.16
2022-11-03T22:52:17.848Z,98319.34
2022-11-03T22:54:44.999Z,98322.59
2022-11-03T22:57:13.266Z,98330.38
2022-11-03T22:59:41.433Z,98338.41
2022-11-03T23:02:09.792Z,98336.72
2022-11-03T23:04:39.262Z,98340.03
2022-11-03T23:07:07.379Z,98344.38
2022-11-03T23:09:35.499Z,98355.00
2022-11-03T23:12:03.609Z,98356.88
2022-11-03T23:14:53.733Z,98351.75
2022-11-03T23:17:42.238Z,98361.25
2022-11-03T23:20:29.557Z,98364.78
2022-11-03T23:22:57.689Z,98363.38
2022-11-03T23:25:24.816Z,98366.19
2022-11-03T23:27:53.616Z,98369.69
2022-11-03T23:30:21.808Z,98370.44
2022-11-03T23:32:50.009Z,98377.19
2022-11-03T23:35:19.555Z,98373.44
2022-11-03T23:37:47.693Z,98381.75
2022-11-03T23:40:18.780Z,98389.31
2022-11-03T23:42:49.268Z,98396.91
2022-11-03T23:45:35.017Z,98393.16
2022-11-03T23:48:20.563Z,98396.44
2022-11-03T23:50:49.998Z,98405.25
2022-11-03T23:53:18.086Z,98402.09
2022-11-03T23:56:00.111Z,98406.78
2022-11-03T23:58:28.462Z,98415.91
